sensor_id;sensor_type;location;lat;lon;timestamp;P1;durP1;ratioP1;P2;durP2;ratioP2
23078;SDS011;11707;50.830;4.364;2023-05-20T00:01:39;7.30;;;3.22;;
23078;SDS011;11707;50.830;4.364;2023-05-20T00:04:07;10.07;;;2.92;;
23078;SDS011;11707;50.830;4.364;2023-05-20T00:06:33;6.65;;;3.25;;
23078;SDS011;11707;50.830;4.364;2023-05-20T00:08:59;8.00;;;3.38;;
23078;SDS011;11707;50.830;4.364;2023-05-20T00:11:24;7.93;;;3.42;;
23078;SDS011;11707;50.830;4.364;2023-05-20T00:13:52;9.07;;;3.40;;
23078;SDS011;11707;50.830;4.364;2023-05-20T00:16:18;8.32;;;3.80;;
23078;SDS011;11707;50.830;4.364;2023-05-20T00:18:44;10.60;;;4.03;;
23078;SDS011;11707;50.830;4.364;2023-05-20T00:21:09;9.57;;;3.45;;
23078;SDS011;11707;50.830;4.364;2023-05-20T00:23:35;8.80;;;3.65;;
23078;SDS011;11707;50.830;4.364;2023-05-20T00:26:03;12.85;;;4.18;;
23078;SDS011;11707;50.830;4.364;2023-05-20T00:28:29;5.55;;;2.80;;
23078;SDS011;11707;50.830;4.364;2023-05-20T00:30:54;9.95;;;3.67;;
23078;SDS011;11707;50.830;4.364;2023-05-20T00:33:20;11.75;;;3.83;;
23078;SDS011;11707;50.830;4.364;2023-05-20T00:35:46;6.40;;;3.22;;
23078;SDS011;11707;50.830;4.364;2023-05-20T00:38:11;7.03;;;3.90;;
23078;SDS011;11707;50.830;4.364;2023-05-20T00:40:37;5.65;;;3.30;;
23078;SDS011;11707;50.830;4.364;2023-05-20T00:43:05;9.32;;;4.15;;
23078;SDS011;11707;50.830;4.364;2023-05-20T00:45:34;7.70;;;3.95;;
23078;SDS011;11707;50.830;4.364;2023-05-20T00:48:01;10.10;;;4.07;;
23078;SDS011;11707;50.830;4.364;2023-05-20T00:50:28;5.72;;;3.30;;
23078;SDS011;11707;50.830;4.364;2023-05-20T00:52:54;9.90;;;4.30;;
23078;SDS011;11707;50.830;4.364;2023-05-20T00:55:20;9.43;;;4.05;;
23078;SDS011;11707;50.830;4.364;2023-05-20T00:57:46;9.55;;;3.80;;
23078;SDS011;11707;50.830;4.364;2023-05-20T01:00:13;7.72;;;3.67;;
23078;SDS011;11707;50.830;4.364;2023-05-20T01:02:42;9.75;;;4.30;;
23078;SDS011;11707;50.830;4.364;2023-05-20T01:05:07;6.20;;;3.60;;
23078;SDS011;11707;50.830;4.364;2023-05-20T01:07:33;8.30;;;3.80;;
23078;SDS011;11707;50.830;4.364;2023-05-20T01:09:59;9.25;;;4.13;;
23078;SDS011;11707;50.830;4.364;2023-05-20T01:12:26;11.20;;;4.13;;
23078;SDS011;11707;50.830;4.364;2023-05-20T01:15:29;8.68;;;3.45;;
23078;SDS011;11707;50.830;4.364;2023-05-20T01:17:50;4.38;;;3.00;;
23078;SDS011;11707;50.830;4.364;2023-05-20T01:20:25;7.78;;;3.47;;
23078;SDS011;11707;50.830;4.364;2023-05-20T01:22:56;7.25;;;3.95;;
23078;SDS011;11707;50.830;4.364;2023-05-20T01:25:22;7.53;;;3.63;;
23078;SDS011;11707;50.830;4.364;2023-05-20T01:27:51;7.50;;;3.35;;
23078;SDS011;11707;50.830;4.364;2023-05-20T01:30:20;4.50;;;2.88;;
23078;SDS011;11707;50.830;4.364;2023-05-20T01:32:49;12.35;;;3.90;;
23078;SDS011;11707;50.830;4.364;2023-05-20T01:35:19;4.95;;;3.33;;
23078;SDS011;11707;50.830;4.364;2023-05-20T01:37:46;6.00;;;3.58;;
23078;SDS011;11707;50.830;4.364;2023-05-20T01:40:15;8.55;;;4.15;;
23078;SDS011;11707;50.830;4.364;2023-05-20T01:42:44;9.18;;;3.80;;
23078;SDS011;11707;50.830;4.364;2023-05-20T01:45:12;9.38;;;3.63;;
23078;SDS011;11707;50.830;4.364;2023-05-20T01:47:38;7.35;;;3.70;;
23078;SDS011;11707;50.830;4.364;2023-05-20T01:50:04;6.15;;;3.20;;
23078;SDS011;11707;50.830;4.364;2023-05-20T01:52:32;5.32;;;3.40;;
23078;SDS011;11707;50.830;4.364;2023-05-20T01:54:57;4.50;;;3.22;;
23078;SDS011;11707;50.830;4.364;2023-05-20T01:57:23;10.10;;;3.97;;
23078;SDS011;11707;50.830;4.364;2023-05-20T01:59:49;6.38;;;3.47;;
23078;SDS011;11707;50.830;4.364;2023-05-20T02:02:15;8.60;;;4.13;;
23078;SDS011;11707;50.830;4.364;2023-05-20T02:04:42;9.15;;;3.63;;
23078;SDS011;11707;50.830;4.364;2023-05-20T02:07:12;7.10;;;3.05;;
23078;SDS011;11707;50.830;4.364;2023-05-20T02:09:43;12.45;;;3.45;;
23078;SDS011;11707;50.830;4.364;2023-05-20T02:12:09;8.15;;;3.75;;
23078;SDS011;11707;50.830;4.364;2023-05-20T02:14:40;7.80;;;3.78;;
23078;SDS011;11707;50.830;4.364;2023-05-20T02:17:07;9.38;;;2.97;;
23078;SDS011;11707;50.830;4.364;2023-05-20T02:19:35;6.50;;;3.60;;
23078;SDS011;11707;50.830;4.364;2023-05-20T02:22:01;7.35;;;3.75;;
23078;SDS011;11707;50.830;4.364;2023-05-20T02:24:29;7.95;;;3.08;;
23078;SDS011;11707;50.830;4.364;2023-05-20T02:26:57;6.55;;;3.20;;
23078;SDS011;11707;50.830;4.364;2023-05-20T02:29:23;5.38;;;3.60;;
23078;SDS011;11707;50.830;4.364;2023-05-20T02:31:52;6.85;;;3.22;;
23078;SDS011;11707;50.830;4.364;2023-05-20T02:34:17;6.50;;;3.10;;
23078;SDS011;11707;50.830;4.364;2023-05-20T02:36:44;5.35;;;3.30;;
23078;SDS011;11707;50.830;4.364;2023-05-20T02:39:10;6.65;;;3.53;;
23078;SDS011;11707;50.830;4.364;2023-05-20T02:41:36;6.43;;;3.42;;
23078;SDS011;11707;50.830;4.364;2023-05-20T02:44:02;4.10;;;2.88;;
23078;SDS011;11707;50.830;4.364;2023-05-20T02:46:28;7.75;;;3.25;;
23078;SDS011;11707;50.830;4.364;2023-05-20T02:48:56;8.18;;;3.20;;
23078;SDS011;11707;50.830;4.364;2023-05-20T02:51:22;10.43;;;3.63;;
23078;SDS011;11707;50.830;4.364;2023-05-20T02:53:48;6.40;;;3.38;;
23078;SDS011;11707;50.830;4.364;2023-05-20T02:56:13;4.47;;;3.20;;
23078;SDS011;11707;50.830;4.364;2023-05-20T02:58:40;7.90;;;3.20;;
23078;SDS011;11707;50.830;4.364;2023-05-20T03:01:08;11.27;;;3.40;;
23078;SDS011;11707;50.830;4.364;2023-05-20T03:03:36;9.70;;;3.63;;
23078;SDS011;11707;50.830;4.364;2023-05-20T03:06:02;11.15;;;3.08;;
23078;SDS011;11707;50.830;4.364;2023-05-20T03:08:27;12.05;;;3.42;;
23078;SDS011;11707;50.830;4.364;2023-05-20T03:10:53;7.20;;;3.22;;
23078;SDS011;11707;50.830;4.364;2023-05-20T03:13:19;10.10;;;3.15;;
23078;SDS011;11707;50.830;4.364;2023-05-20T03:15:45;9.35;;;3.38;;
23078;SDS011;11707;50.830;4.364;2023-05-20T03:18:11;8.23;;;3.40;;
23078;SDS011;11707;50.830;4.364;2023-05-20T03:20:39;7.82;;;3.10;;
23078;SDS011;11707;50.830;4.364;2023-05-20T03:23:08;11.45;;;3.95;;
23078;SDS011;11707;50.830;4.364;2023-05-20T03:25:34;8.30;;;2.97;;
23078;SDS011;11707;50.830;4.364;2023-05-20T03:28:00;9.07;;;3.60;;
23078;SDS011;11707;50.830;4.364;2023-05-20T03:30:26;6.82;;;3.30;;
23078;SDS011;11707;50.830;4.364;2023-05-20T03:32:55;6.05;;;3.92;;
23078;SDS011;11707;50.830;4.364;2023-05-20T03:35:23;6.07;;;3.08;;
23078;SDS011;11707;50.830;4.364;2023-05-20T03:37:50;8.98;;;3.92;;
23078;SDS011;11707;50.830;4.364;2023-05-20T03:40:17;5.63;;;2.90;;
23078;SDS011;11707;50.830;4.364;2023-05-20T03:42:45;8.02;;;3.67;;
23078;SDS011;11707;50.830;4.364;2023-05-20T03:45:11;9.93;;;4.20;;
23078;SDS011;11707;50.830;4.364;2023-05-20T03:47:37;8.25;;;3.90;;
23078;SDS011;11707;50.830;4.364;2023-05-20T03:50:03;10.75;;;4.50;;
23078;SDS011;11707;50.830;4.364;2023-05-20T03:52:29;13.93;;;4.10;;
23078;SDS011;11707;50.830;4.364;2023-05-20T03:54:58;6.20;;;3.60;;
23078;SDS011;11707;50.830;4.364;2023-05-20T03:57:24;7.03;;;3.70;;
23078;SDS011;11707;50.830;4.364;2023-05-20T03:59:50;11.00;;;3.60;;
23078;SDS011;11707;50.830;4.364;2023-05-20T04:02:16;11.38;;;3.55;;
23078;SDS011;11707;50.830;4.364;2023-05-20T04:04:42;8.25;;;3.65;;
23078;SDS011;11707;50.830;4.364;2023-05-20T04:07:10;9.32;;;3.80;;
23078;SDS011;11707;50.830;4.364;2023-05-20T04:09:36;10.85;;;4.47;;
23078;SDS011;11707;50.830;4.364;2023-05-20T04:12:03;13.85;;;4.70;;
23078;SDS011;11707;50.830;4.364;2023-05-20T04:14:30;9.95;;;3.97;;
23078;SDS011;11707;50.830;4.364;2023-05-20T04:16:58;10.32;;;4.55;;
23078;SDS011;11707;50.830;4.364;2023-05-20T04:19:25;10.63;;;4.07;;
23078;SDS011;11707;50.830;4.364;2023-05-20T04:21:54;9.35;;;3.83;;
23078;SDS011;11707;50.830;4.364;2023-05-20T04:24:20;10.57;;;4.32;;
23078;SDS011;11707;50.830;4.364;2023-05-20T04:26:49;9.07;;;4.25;;
23078;SDS011;11707;50.830;4.364;2023-05-20T04:29:16;11.93;;;4.22;;
23078;SDS011;11707;50.830;4.364;2023-05-20T04:31:43;9.38;;;4.45;;
23078;SDS011;11707;50.830;4.364;2023-05-20T04:34:12;7.10;;;4.15;;
23078;SDS011;11707;50.830;4.364;2023-05-20T04:36:38;6.70;;;4.05;;
23078;SDS011;11707;50.830;4.364;2023-05-20T04:39:07;9.18;;;3.55;;
23078;SDS011;11707;50.830;4.364;2023-05-20T04:41:33;6.43;;;4.40;;
23078;SDS011;11707;50.830;4.364;2023-05-20T04:44:01;9.45;;;3.83;;
23078;SDS011;11707;50.830;4.364;2023-05-20T04:46:27;7.80;;;4.38;;
23078;SDS011;11707;50.830;4.364;2023-05-20T04:48:53;7.85;;;3.75;;
23078;SDS011;11707;50.830;4.364;2023-05-20T04:51:19;8.95;;;3.75;;
23078;SDS011;11707;50.830;4.364;2023-05-20T04:53:45;8.55;;;3.83;;
23078;SDS011;11707;50.830;4.364;2023-05-20T04:56:10;8.50;;;4.55;;
23078;SDS011;11707;50.830;4.364;2023-05-20T04:58:37;13.75;;;4.40;;
23078;SDS011;11707;50.830;4.364;2023-05-20T05:01:03;11.13;;;3.78;;
23078;SDS011;11707;50.830;4.364;2023-05-20T05:03:29;12.00;;;4.70;;
23078;SDS011;11707;50.830;4.364;2023-05-20T05:05:55;8.18;;;3.97;;
23078;SDS011;11707;50.830;4.364;2023-05-20T05:08:21;12.80;;;5.07;;
23078;SDS011;11707;50.830;4.364;2023-05-20T05:10:50;13.20;;;5.18;;
23078;SDS011;11707;50.830;4.364;2023-05-20T05:13:16;10.65;;;4.20;;
23078;SDS011;11707;50.830;4.364;2023-05-20T05:15:42;8.50;;;4.13;;
23078;SDS011;11707;50.830;4.364;2023-05-20T05:18:08;12.77;;;4.15;;
23078;SDS011;11707;50.830;4.364;2023-05-20T05:20:36;6.82;;;4.32;;
23078;SDS011;11707;50.830;4.364;2023-05-20T05:23:01;11.00;;;4.75;;
23078;SDS011;11707;50.830;4.364;2023-05-20T05:25:27;7.63;;;4.15;;
23078;SDS011;11707;50.830;4.364;2023-05-20T05:27:56;9.43;;;4.43;;
23078;SDS011;11707;50.830;4.364;2023-05-20T05:30:22;7.32;;;4.38;;
23078;SDS011;11707;50.830;4.364;2023-05-20T05:32:47;13.32;;;6.03;;
23078;SDS011;11707;50.830;4.364;2023-05-20T05:35:15;9.18;;;4.45;;
23078;SDS011;11707;50.830;4.364;2023-05-20T05:37:41;9.30;;;4.75;;
23078;SDS011;11707;50.830;4.364;2023-05-20T05:40:07;14.35;;;7.18;;
23078;SDS011;11707;50.830;4.364;2023-05-20T05:42:33;10.90;;;4.47;;
23078;SDS011;11707;50.830;4.364;2023-05-20T05:44:59;9.55;;;4.35;;
23078;SDS011;11707;50.830;4.364;2023-05-20T05:47:27;8.07;;;4.95;;
23078;SDS011;11707;50.830;4.364;2023-05-20T05:49:56;12.40;;;4.63;;
23078;SDS011;11707;50.830;4.364;2023-05-20T05:52:22;12.05;;;5.30;;
23078;SDS011;11707;50.830;4.364;2023-05-20T05:54:48;14.90;;;4.97;;
23078;SDS011;11707;50.830;4.364;2023-05-20T05:57:16;7.40;;;4.18;;
23078;SDS011;11707;50.830;4.364;2023-05-20T05:59:42;10.18;;;4.55;;
23078;SDS011;11707;50.830;4.364;2023-05-20T06:02:07;7.95;;;4.53;;
23078;SDS011;11707;50.830;4.364;2023-05-20T06:04:34;8.23;;;4.35;;
23078;SDS011;11707;50.830;4.364;2023-05-20T06:07:02;9.23;;;4.53;;
23078;SDS011;11707;50.830;4.364;2023-05-20T06:09:28;9.05;;;4.85;;
23078;SDS011;11707;50.830;4.364;2023-05-20T06:11:53;8.35;;;4.20;;
23078;SDS011;11707;50.830;4.364;2023-05-20T06:14:19;11.70;;;3.80;;
23078;SDS011;11707;50.830;4.364;2023-05-20T06:16:45;11.73;;;4.63;;
23078;SDS011;11707;50.830;4.364;2023-05-20T06:19:13;6.60;;;4.80;;
23078;SDS011;11707;50.830;4.364;2023-05-20T06:21:38;10.30;;;5.13;;
23078;SDS011;11707;50.830;4.364;2023-05-20T06:24:04;13.68;;;4.90;;
23078;SDS011;11707;50.830;4.364;2023-05-20T06:26:32;10.60;;;4.75;;
23078;SDS011;11707;50.830;4.364;2023-05-20T06:29:00;10.45;;;4.47;;
23078;SDS011;11707;50.830;4.364;2023-05-20T06:31:27;8.35;;;4.35;;
23078;SDS011;11707;50.830;4.364;2023-05-20T06:33:55;6.82;;;4.55;;
23078;SDS011;11707;50.830;4.364;2023-05-20T06:36:20;11.15;;;4.32;;
23078;SDS011;11707;50.830;4.364;2023-05-20T06:38:46;8.20;;;4.40;;
23078;SDS011;11707;50.830;4.364;2023-05-20T06:41:12;7.80;;;4.10;;
23078;SDS011;11707;50.830;4.364;2023-05-20T06:43:38;14.80;;;4.82;;
23078;SDS011;11707;50.830;4.364;2023-05-20T06:46:04;11.60;;;4.97;;
23078;SDS011;11707;50.830;4.364;2023-05-20T06:48:30;7.10;;;4.00;;
23078;SDS011;11707;50.830;4.364;2023-05-20T06:50:56;6.63;;;3.90;;
23078;SDS011;11707;50.830;4.364;2023-05-20T06:53:22;8.43;;;4.75;;
23078;SDS011;11707;50.830;4.364;2023-05-20T06:55:48;7.07;;;4.20;;
23078;SDS011;11707;50.830;4.364;2023-05-20T06:58:13;9.65;;;4.47;;
23078;SDS011;11707;50.830;4.364;2023-05-20T07:00:39;8.82;;;3.88;;
23078;SDS011;11707;50.830;4.364;2023-05-20T07:03:05;8.07;;;4.35;;
23078;SDS011;11707;50.830;4.364;2023-05-20T07:05:31;6.63;;;4.53;;
23078;SDS011;11707;50.830;4.364;2023-05-20T07:07:57;8.63;;;3.80;;
23078;SDS011;11707;50.830;4.364;2023-05-20T07:10:25;9.02;;;4.80;;
23078;SDS011;11707;50.830;4.364;2023-05-20T07:12:50;12.48;;;4.40;;
23078;SDS011;11707;50.830;4.364;2023-05-20T07:15:16;9.50;;;4.22;;
23078;SDS011;11707;50.830;4.364;2023-05-20T07:17:44;6.38;;;4.20;;
23078;SDS011;11707;50.830;4.364;2023-05-20T07:20:10;7.88;;;4.18;;
23078;SDS011;11707;50.830;4.364;2023-05-20T07:22:36;5.97;;;3.50;;
23078;SDS011;11707;50.830;4.364;2023-05-20T07:25:02;12.77;;;3.95;;
23078;SDS011;11707;50.830;4.364;2023-05-20T07:27:30;9.43;;;4.55;;
23078;SDS011;11707;50.830;4.364;2023-05-20T07:29:55;8.07;;;4.10;;
23078;SDS011;11707;50.830;4.364;2023-05-20T07:32:21;9.38;;;3.60;;
23078;SDS011;11707;50.830;4.364;2023-05-20T07:34:47;10.18;;;3.97;;
23078;SDS011;11707;50.830;4.364;2023-05-20T07:37:12;7.05;;;4.05;;
23078;SDS011;11707;50.830;4.364;2023-05-20T07:39:38;10.63;;;4.15;;
23078;SDS011;11707;50.830;4.364;2023-05-20T07:42:04;6.13;;;3.70;;
23078;SDS011;11707;50.830;4.364;2023-05-20T07:44:30;7.70;;;3.60;;
23078;SDS011;11707;50.830;4.364;2023-05-20T07:46:56;7.63;;;3.90;;
23078;SDS011;11707;50.830;4.364;2023-05-20T07:49:26;7.07;;;4.35;;
23078;SDS011;11707;50.830;4.364;2023-05-20T07:51:51;5.90;;;3.03;;
23078;SDS011;11707;50.830;4.364;2023-05-20T07:54:17;5.60;;;3.42;;
23078;SDS011;11707;50.830;4.364;2023-05-20T07:56:43;6.55;;;3.30;;
23078;SDS011;11707;50.830;4.364;2023-05-20T07:59:08;6.38;;;3.05;;
23078;SDS011;11707;50.830;4.364;2023-05-20T08:01:34;4.68;;;2.97;;
23078;SDS011;11707;50.830;4.364;2023-05-20T08:04:02;9.43;;;3.55;;
23078;SDS011;11707;50.830;4.364;2023-05-20T08:06:28;5.38;;;3.75;;
23078;SDS011;11707;50.830;4.364;2023-05-20T08:08:59;6.45;;;3.10;;
23078;SDS011;11707;50.830;4.364;2023-05-20T08:11:26;5.90;;;3.05;;
23078;SDS011;11707;50.830;4.364;2023-05-20T08:13:54;4.82;;;3.00;;
23078;SDS011;11707;50.830;4.364;2023-05-20T08:16:22;6.85;;;3.15;;
23078;SDS011;11707;50.830;4.364;2023-05-20T08:18:50;5.18;;;2.85;;
23078;SDS011;11707;50.830;4.364;2023-05-20T08:21:16;5.80;;;2.70;;
23078;SDS011;11707;50.830;4.364;2023-05-20T08:23:41;4.88;;;2.90;;
23078;SDS011;11707;50.830;4.364;2023-05-20T08:26:09;5.78;;;3.38;;
23078;SDS011;11707;50.830;4.364;2023-05-20T08:28:35;4.47;;;2.65;;
23078;SDS011;11707;50.830;4.364;2023-05-20T08:31:02;6.07;;;2.63;;
23078;SDS011;11707;50.830;4.364;2023-05-20T08:33:28;7.50;;;2.90;;
23078;SDS011;11707;50.830;4.364;2023-05-20T08:35:53;7.78;;;2.88;;
23078;SDS011;11707;50.830;4.364;2023-05-20T08:38:19;5.97;;;3.08;;
23078;SDS011;11707;50.830;4.364;2023-05-20T08:40:45;12.35;;;2.97;;
23078;SDS011;11707;50.830;4.364;2023-05-20T08:43:15;9.73;;;2.92;;
23078;SDS011;11707;50.830;4.364;2023-05-20T08:45:41;7.60;;;3.00;;
23078;SDS011;11707;50.830;4.364;2023-05-20T08:48:07;4.95;;;2.60;;
23078;SDS011;11707;50.830;4.364;2023-05-20T08:50:33;6.75;;;2.70;;
23078;SDS011;11707;50.830;4.364;2023-05-20T08:52:58;5.70;;;2.13;;
23078;SDS011;11707;50.830;4.364;2023-05-20T08:55:27;9.77;;;2.83;;
23078;SDS011;11707;50.830;4.364;2023-05-20T08:58:01;6.32;;;2.78;;
23078;SDS011;11707;50.830;4.364;2023-05-20T09:00:31;7.75;;;2.90;;
23078;SDS011;11707;50.830;4.364;2023-05-20T09:02:57;8.60;;;2.50;;
23078;SDS011;11707;50.830;4.364;2023-05-20T09:05:24;6.18;;;2.78;;
23078;SDS011;11707;50.830;4.364;2023-05-20T09:07:50;5.95;;;2.55;;
23078;SDS011;11707;50.830;4.364;2023-05-20T09:10:15;6.68;;;3.08;;
23078;SDS011;11707;50.830;4.364;2023-05-20T09:12:43;5.55;;;2.80;;
23078;SDS011;11707;50.830;4.364;2023-05-20T09:15:09;6.32;;;4.00;;
23078;SDS011;11707;50.830;4.364;2023-05-20T09:17:36;4.47;;;2.90;;
23078;SDS011;11707;50.830;4.364;2023-05-20T09:20:08;3.95;;;2.40;;
23078;SDS011;11707;50.830;4.364;2023-05-20T09:22:38;9.13;;;2.38;;
23078;SDS011;11707;50.830;4.364;2023-05-20T09:25:04;6.05;;;2.63;;
23078;SDS011;11707;50.830;4.364;2023-05-20T09:27:30;13.07;;;3.08;;
23078;SDS011;11707;50.830;4.364;2023-05-20T09:29:56;8.18;;;3.42;;
23078;SDS011;11707;50.830;4.364;2023-05-20T09:32:22;5.40;;;2.28;;
23078;SDS011;11707;50.830;4.364;2023-05-20T09:34:50;7.32;;;2.72;;
23078;SDS011;11707;50.830;4.364;2023-05-20T09:37:16;8.32;;;2.65;;
23078;SDS011;11707;50.830;4.364;2023-05-20T09:42:17;9.93;;;3.53;;
23078;SDS011;11707;50.830;4.364;2023-05-20T09:44:48;5.57;;;3.08;;
23078;SDS011;11707;50.830;4.364;2023-05-20T09:47:15;5.43;;;2.25;;
23078;SDS011;11707;50.830;4.364;2023-05-20T09:49:41;6.88;;;2.58;;
23078;SDS011;11707;50.830;4.364;2023-05-20T09:52:10;6.32;;;2.20;;
23078;SDS011;11707;50.830;4.364;2023-05-20T09:54:37;5.45;;;2.20;;
23078;SDS011;11707;50.830;4.364;2023-05-20T09:57:06;4.85;;;2.50;;
23078;SDS011;11707;50.830;4.364;2023-05-20T09:59:33;4.63;;;2.65;;
23078;SDS011;11707;50.830;4.364;2023-05-20T10:02:01;6.35;;;2.17;;
23078;SDS011;11707;50.830;4.364;2023-05-20T10:04:27;3.53;;;2.50;;
23078;SDS011;11707;50.830;4.364;2023-05-20T10:17:13;4.80;;;2.15;;
23078;SDS011;11707;50.830;4.364;2023-05-20T10:20:05;5.45;;;2.38;;
23078;SDS011;11707;50.830;4.364;2023-05-20T10:22:35;5.80;;;2.20;;
23078;SDS011;11707;50.830;4.364;2023-05-20T10:25:05;6.28;;;2.20;;
23078;SDS011;11707;50.830;4.364;2023-05-20T10:30:16;4.73;;;2.83;;
23078;SDS011;11707;50.830;4.364;2023-05-20T10:32:53;8.18;;;2.25;;
23078;SDS011;11707;50.830;4.364;2023-05-20T10:35:24;5.60;;;2.53;;
23078;SDS011;11707;50.830;4.364;2023-05-20T10:37:51;5.90;;;2.33;;
23078;SDS011;11707;50.830;4.364;2023-05-20T10:40:21;4.78;;;2.70;;
23078;SDS011;11707;50.830;4.364;2023-05-20T10:42:47;4.63;;;2.22;;
23078;SDS011;11707;50.830;4.364;2023-05-20T10:45:26;6.03;;;2.22;;
23078;SDS011;11707;50.830;4.364;2023-05-20T10:47:56;6.38;;;2.38;;
23078;SDS011;11707;50.830;4.364;2023-05-20T10:50:40;6.70;;;2.45;;
23078;SDS011;11707;50.830;4.364;2023-05-20T10:53:13;3.63;;;2.10;;
23078;SDS011;11707;50.830;4.364;2023-05-20T10:55:39;9.00;;;2.50;;
23078;SDS011;11707;50.830;4.364;2023-05-20T10:58:12;5.53;;;2.30;;
23078;SDS011;11707;50.830;4.364;2023-05-20T11:00:38;4.22;;;2.10;;
23078;SDS011;11707;50.830;4.364;2023-05-20T11:03:05;8.27;;;2.80;;
23078;SDS011;11707;50.830;4.364;2023-05-20T11:05:31;7.05;;;2.60;;
23078;SDS011;11707;50.830;4.364;2023-05-20T11:08:07;8.57;;;2.47;;
23078;SDS011;11707;50.830;4.364;2023-05-20T11:10:36;7.60;;;2.50;;
23078;SDS011;11707;50.830;4.364;2023-05-20T11:13:03;5.32;;;2.40;;
23078;SDS011;11707;50.830;4.364;2023-05-20T11:15:29;5.35;;;2.45;;
23078;SDS011;11707;50.830;4.364;2023-05-20T11:17:59;5.97;;;2.25;;
23078;SDS011;11707;50.830;4.364;2023-05-20T11:20:27;8.38;;;2.28;;
23078;SDS011;11707;50.830;4.364;2023-05-20T11:22:53;4.80;;;2.50;;
23078;SDS011;11707;50.830;4.364;2023-05-20T11:25:22;4.82;;;2.30;;
23078;SDS011;11707;50.830;4.364;2023-05-20T11:27:48;5.07;;;2.40;;
23078;SDS011;11707;50.830;4.364;2023-05-20T11:30:14;7.15;;;2.50;;
23078;SDS011;11707;50.830;4.364;2023-05-20T11:32:55;7.38;;;2.40;;
23078;SDS011;11707;50.830;4.364;2023-05-20T11:35:25;6.95;;;2.03;;
23078;SDS011;11707;50.830;4.364;2023-05-20T11:38:04;4.30;;;1.90;;
23078;SDS011;11707;50.830;4.364;2023-05-20T11:40:32;5.03;;;2.10;;
23078;SDS011;11707;50.830;4.364;2023-05-20T11:42:58;4.20;;;2.30;;
23078;SDS011;11707;50.830;4.364;2023-05-20T11:46:12;10.07;;;3.22;;
23078;SDS011;11707;50.830;4.364;2023-05-20T11:48:17;10.85;;;2.40;;
23078;SDS011;11707;50.830;4.364;2023-05-20T11:50:44;6.45;;;2.65;;
23078;SDS011;11707;50.830;4.364;2023-05-20T11:53:16;10.02;;;2.50;;
23078;SDS011;11707;50.830;4.364;2023-05-20T11:56:04;7.20;;;3.13;;
23078;SDS011;11707;50.830;4.364;2023-05-20T11:58:29;5.25;;;2.88;;
23078;SDS011;11707;50.830;4.364;2023-05-20T12:00:56;8.40;;;2.92;;
23078;SDS011;11707;50.830;4.364;2023-05-20T12:03:25;3.97;;;2.05;;
23078;SDS011;11707;50.830;4.364;2023-05-20T12:05:55;10.82;;;2.40;;
23078;SDS011;11707;50.830;4.364;2023-05-20T12:08:21;4.40;;;2.72;;
23078;SDS011;11707;50.830;4.364;2023-05-20T12:10:47;6.78;;;2.22;;
23078;SDS011;11707;50.830;4.364;2023-05-20T12:13:12;5.28;;;1.98;;
23078;SDS011;11707;50.830;4.364;2023-05-20T12:15:38;4.60;;;3.03;;
23078;SDS011;11707;50.830;4.364;2023-05-20T12:18:04;3.35;;;2.28;;
23078;SDS011;11707;50.830;4.364;2023-05-20T12:20:30;4.63;;;2.28;;
23078;SDS011;11707;50.830;4.364;2023-05-20T12:22:58;10.55;;;2.65;;
23078;SDS011;11707;50.830;4.364;2023-05-20T12:25:27;4.22;;;2.15;;
23078;SDS011;11707;50.830;4.364;2023-05-20T12:27:54;7.18;;;2.55;;
23078;SDS011;11707;50.830;4.364;2023-05-20T12:30:20;3.90;;;2.67;;
23078;SDS011;11707;50.830;4.364;2023-05-20T12:32:49;3.83;;;2.50;;
23078;SDS011;11707;50.830;4.364;2023-05-20T12:35:16;6.07;;;2.22;;
23078;SDS011;11707;50.830;4.364;2023-05-20T12:37:43;4.28;;;2.53;;
23078;SDS011;11707;50.830;4.364;2023-05-20T12:40:10;4.07;;;2.05;;
23078;SDS011;11707;50.830;4.364;2023-05-20T12:42:39;4.97;;;2.50;;
23078;SDS011;11707;50.830;4.364;2023-05-20T12:45:06;4.78;;;2.20;;
23078;SDS011;11707;50.830;4.364;2023-05-20T12:47:36;5.40;;;2.50;;
23078;SDS011;11707;50.830;4.364;2023-05-20T12:50:04;4.22;;;2.25;;
23078;SDS011;11707;50.830;4.364;2023-05-20T12:52:31;5.03;;;2.33;;
23078;SDS011;11707;50.830;4.364;2023-05-20T12:54:56;4.82;;;2.10;;
23078;SDS011;11707;50.830;4.364;2023-05-20T12:57:22;8.23;;;2.75;;
23078;SDS011;11707;50.830;4.364;2023-05-20T12:59:48;10.43;;;5.47;;
23078;SDS011;11707;50.830;4.364;2023-05-20T13:02:14;6.55;;;2.00;;
23078;SDS011;11707;50.830;4.364;2023-05-20T13:04:40;5.32;;;2.10;;
23078;SDS011;11707;50.830;4.364;2023-05-20T13:07:06;6.15;;;2.53;;
23078;SDS011;11707;50.830;4.364;2023-05-20T13:09:32;3.88;;;2.17;;
23078;SDS011;11707;50.830;4.364;2023-05-20T13:11:58;5.22;;;2.10;;
23078;SDS011;11707;50.830;4.364;2023-05-20T13:14:26;3.97;;;1.95;;
23078;SDS011;11707;50.830;4.364;2023-05-20T13:16:52;6.32;;;2.28;;
23078;SDS011;11707;50.830;4.364;2023-05-20T13:19:23;6.13;;;2.00;;
23078;SDS011;11707;50.830;4.364;2023-05-20T13:21:49;5.47;;;2.47;;
23078;SDS011;11707;50.830;4.364;2023-05-20T13:24:16;4.13;;;2.00;;
23078;SDS011;11707;50.830;4.364;2023-05-20T13:26:42;5.00;;;1.92;;
23078;SDS011;11707;50.830;4.364;2023-05-20T13:29:08;5.43;;;1.98;;
23078;SDS011;11707;50.830;4.364;2023-05-20T13:31:34;6.43;;;1.80;;
23078;SDS011;11707;50.830;4.364;2023-05-20T13:34:02;6.47;;;2.42;;
23078;SDS011;11707;50.830;4.364;2023-05-20T13:36:28;6.72;;;2.60;;
23078;SDS011;11707;50.830;4.364;2023-05-20T13:38:53;4.45;;;1.70;;
23078;SDS011;11707;50.830;4.364;2023-05-20T13:41:19;5.38;;;2.63;;
23078;SDS011;11707;50.830;4.364;2023-05-20T13:43:45;3.15;;;1.83;;
23078;SDS011;11707;50.830;4.364;2023-05-20T13:46:10;6.20;;;2.13;;
23078;SDS011;11707;50.830;4.364;2023-05-20T13:48:36;2.97;;;1.90;;
23078;SDS011;11707;50.830;4.364;2023-05-20T13:51:02;6.18;;;1.90;;
23078;SDS011;11707;50.830;4.364;2023-05-20T13:53:28;5.65;;;2.05;;
23078;SDS011;11707;50.830;4.364;2023-05-20T13:55:53;3.70;;;2.00;;
23078;SDS011;11707;50.830;4.364;2023-05-20T13:58:19;7.60;;;2.70;;
23078;SDS011;11707;50.830;4.364;2023-05-20T14:00:47;2.95;;;1.80;;
23078;SDS011;11707;50.830;4.364;2023-05-20T14:03:13;5.30;;;2.03;;
23078;SDS011;11707;50.830;4.364;2023-05-20T14:05:38;3.38;;;1.95;;
23078;SDS011;11707;50.830;4.364;2023-05-20T14:08:04;3.97;;;1.98;;
23078;SDS011;11707;50.830;4.364;2023-05-20T14:10:30;3.95;;;1.88;;
23078;SDS011;11707;50.830;4.364;2023-05-20T14:12:56;2.97;;;2.20;;
23078;SDS011;11707;50.830;4.364;2023-05-20T14:15:22;5.45;;;2.30;;
23078;SDS011;11707;50.830;4.364;2023-05-20T14:17:48;4.82;;;2.13;;
23078;SDS011;11707;50.830;4.364;2023-05-20T14:20:14;2.67;;;1.88;;
23078;SDS011;11707;50.830;4.364;2023-05-20T14:22:40;2.45;;;1.83;;
23078;SDS011;11707;50.830;4.364;2023-05-20T14:25:06;3.97;;;2.47;;
23078;SDS011;11707;50.830;4.364;2023-05-20T14:27:33;5.93;;;2.35;;
23078;SDS011;11707;50.830;4.364;2023-05-20T14:29:59;6.63;;;3.10;;
23078;SDS011;11707;50.830;4.364;2023-05-20T14:32:24;5.70;;;2.90;;
23078;SDS011;11707;50.830;4.364;2023-05-20T14:34:50;5.93;;;2.45;;
23078;SDS011;11707;50.830;4.364;2023-05-20T14:37:17;3.72;;;2.42;;
23078;SDS011;11707;50.830;4.364;2023-05-20T14:39:43;3.28;;;2.40;;
23078;SDS011;11707;50.830;4.364;2023-05-20T14:42:10;4.80;;;2.63;;
23078;SDS011;11707;50.830;4.364;2023-05-20T14:44:36;5.40;;;2.58;;
23078;SDS011;11707;50.830;4.364;2023-05-20T14:47:02;5.07;;;2.90;;
23078;SDS011;11707;50.830;4.364;2023-05-20T14:49:27;3.05;;;2.25;;
23078;SDS011;11707;50.830;4.364;2023-05-20T14:51:53;4.47;;;2.10;;
23078;SDS011;11707;50.830;4.364;2023-05-20T14:54:19;3.95;;;2.03;;
23078;SDS011;11707;50.830;4.364;2023-05-20T14:56:49;7.55;;;1.80;;
23078;SDS011;11707;50.830;4.364;2023-05-20T14:59:15;7.97;;;2.35;;
23078;SDS011;11707;50.830;4.364;2023-05-20T15:01:42;3.95;;;1.85;;